sensor_id;sensor_type;location;lat;lon;timestamp;P1;durP1;ratioP1;P2;durP2;ratioP2
62709;SDS011;48770;51.624;5.886;2023-03-14T00:00:36;0.82;;;0.45;;
62709;SDS011;48770;51.624;5.886;2023-03-14T00:03:02;0.30;;;0.30;;
62709;SDS011;48770;51.624;5.886;2023-03-14T00:05:27;0.88;;;0.40;;
62709;SDS011;48770;51.624;5.886;2023-03-14T00:07:52;0.75;;;0.32;;
62709;SDS011;48770;51.624;5.886;2023-03-14T00:10:18;0.65;;;0.25;;
62709;SDS011;48770;51.624;5.886;2023-03-14T00:12:44;0.70;;;0.30;;
62709;SDS011;48770;51.624;5.886;2023-03-14T00:15:10;0.68;;;0.43;;
62709;SDS011;48770;51.624;5.886;2023-03-14T00:17:36;1.00;;;0.40;;
62709;SDS011;48770;51.624;5.886;2023-03-14T00:20:03;0.45;;;0.28;;
62709;SDS011;48770;51.624;5.886;2023-03-14T00:22:36;1.05;;;0.30;;
62709;SDS011;48770;51.624;5.886;2023-03-14T00:25:03;1.48;;;0.40;;
62709;SDS011;48770;51.624;5.886;2023-03-14T00:27:30;0.40;;;0.25;;
62709;SDS011;48770;51.624;5.886;2023-03-14T00:29:56;0.40;;;0.30;;
62709;SDS011;48770;51.624;5.886;2023-03-14T00:32:21;0.82;;;0.32;;
62709;SDS011;48770;51.624;5.886;2023-03-14T00:34:46;0.45;;;0.30;;
62709;SDS011;48770;51.624;5.886;2023-03-14T00:37:12;1.42;;;0.30;;
62709;SDS011;48770;51.624;5.886;2023-03-14T00:39:37;0.63;;;0.30;;
62709;SDS011;48770;51.624;5.886;2023-03-14T00:42:03;0.88;;;0.40;;
62709;SDS011;48770;51.624;5.886;2023-03-14T00:44:28;2.47;;;0.40;;
62709;SDS011;48770;51.624;5.886;2023-03-14T00:46:54;0.50;;;0.38;;
62709;SDS011;48770;51.624;5.886;2023-03-14T00:49:19;0.68;;;0.20;;
62709;SDS011;48770;51.624;5.886;2023-03-14T00:51:44;0.55;;;0.30;;
62709;SDS011;48770;51.624;5.886;2023-03-14T00:54:10;1.23;;;0.60;;
62709;SDS011;48770;51.624;5.886;2023-03-14T00:56:36;0.95;;;0.28;;
62709;SDS011;48770;51.624;5.886;2023-03-14T00:59:01;0.57;;;0.30;;
62709;SDS011;48770;51.624;5.886;2023-03-14T01:01:26;1.23;;;0.30;;
62709;SDS011;48770;51.624;5.886;2023-03-14T01:03:52;0.73;;;0.30;;
62709;SDS011;48770;51.624;5.886;2023-03-14T01:06:20;0.73;;;0.30;;
62709;SDS011;48770;51.624;5.886;2023-03-14T01:08:50;0.32;;;0.28;;
62709;SDS011;48770;51.624;5.886;2023-03-14T01:11:17;0.57;;;0.25;;
62709;SDS011;48770;51.624;5.886;2023-03-14T01:13:44;0.32;;;0.25;;
62709;SDS011;48770;51.624;5.886;2023-03-14T01:16:10;0.65;;;0.35;;
62709;SDS011;48770;51.624;5.886;2023-03-14T01:18:37;0.98;;;0.45;;
62709;SDS011;48770;51.624;5.886;2023-03-14T01:21:04;0.40;;;0.30;;
62709;SDS011;48770;51.624;5.886;2023-03-14T01:23:35;1.60;;;0.30;;
62709;SDS011;48770;51.624;5.886;2023-03-14T01:26:01;0.95;;;0.30;;
62709;SDS011;48770;51.624;5.886;2023-03-14T01:28:26;0.80;;;0.35;;
62709;SDS011;48770;51.624;5.886;2023-03-14T01:30:51;0.60;;;0.40;;
62709;SDS011;48770;51.624;5.886;2023-03-14T01:33:17;0.73;;;0.22;;
62709;SDS011;48770;51.624;5.886;2023-03-14T01:35:42;0.82;;;0.35;;
62709;SDS011;48770;51.624;5.886;2023-03-14T01:38:07;0.90;;;0.22;;
62709;SDS011;48770;51.624;5.886;2023-03-14T01:40:33;0.63;;;0.30;;
62709;SDS011;48770;51.624;5.886;2023-03-14T01:43:05;0.45;;;0.22;;
62709;SDS011;48770;51.624;5.886;2023-03-14T01:46:09;0.68;;;0.30;;
62709;SDS011;48770;51.624;5.886;2023-03-14T01:49:04;0.45;;;0.20;;
62709;SDS011;48770;51.624;5.886;2023-03-14T01:54:16;0.88;;;0.30;;
62709;SDS011;48770;51.624;5.886;2023-03-14T01:59:38;0.32;;;0.22;;
62709;SDS011;48770;51.624;5.886;2023-03-14T02:02:07;0.82;;;0.30;;
62709;SDS011;48770;51.624;5.886;2023-03-14T02:04:36;0.77;;;0.40;;
62709;SDS011;48770;51.624;5.886;2023-03-14T02:09:49;0.60;;;0.25;;
62709;SDS011;48770;51.624;5.886;2023-03-14T02:12:16;1.25;;;0.30;;
62709;SDS011;48770;51.624;5.886;2023-03-14T02:14:43;0.63;;;0.30;;
62709;SDS011;48770;51.624;5.886;2023-03-14T02:17:13;0.20;;;0.20;;
62709;SDS011;48770;51.624;5.886;2023-03-14T02:19:48;1.15;;;0.40;;
62709;SDS011;48770;51.624;5.886;2023-03-14T02:29:44;0.98;;;0.30;;
62709;SDS011;48770;51.624;5.886;2023-03-14T02:32:14;0.55;;;0.20;;
62709;SDS011;48770;51.624;5.886;2023-03-14T02:34:42;1.08;;;0.40;;
62709;SDS011;48770;51.624;5.886;2023-03-14T02:37:10;0.77;;;0.30;;
62709;SDS011;48770;51.624;5.886;2023-03-14T02:39:39;0.75;;;0.28;;
62709;SDS011;48770;51.624;5.886;2023-03-14T02:42:07;1.00;;;0.35;;
62709;SDS011;48770;51.624;5.886;2023-03-14T02:44:33;0.80;;;0.22;;
62709;SDS011;48770;51.624;5.886;2023-03-14T02:47:00;0.38;;;0.28;;
62709;SDS011;48770;51.624;5.886;2023-03-14T02:49:26;0.75;;;0.30;;
62709;SDS011;48770;51.624;5.886;2023-03-14T02:51:54;0.47;;;0.13;;
62709;SDS011;48770;51.624;5.886;2023-03-14T02:54:19;1.25;;;0.30;;
62709;SDS011;48770;51.624;5.886;2023-03-14T02:56:45;0.90;;;0.20;;
62709;SDS011;48770;51.624;5.886;2023-03-14T02:59:11;0.30;;;0.20;;
62709;SDS011;48770;51.624;5.886;2023-03-14T03:01:36;0.52;;;0.28;;
62709;SDS011;48770;51.624;5.886;2023-03-14T03:04:01;0.82;;;0.30;;
62709;SDS011;48770;51.624;5.886;2023-03-14T03:06:27;1.10;;;0.30;;
62709;SDS011;48770;51.624;5.886;2023-03-14T03:08:52;0.90;;;0.43;;
62709;SDS011;48770;51.624;5.886;2023-03-14T03:11:17;0.40;;;0.20;;
62709;SDS011;48770;51.624;5.886;2023-03-14T03:13:43;0.40;;;0.10;;
62709;SDS011;48770;51.624;5.886;2023-03-14T03:16:08;1.02;;;0.32;;
62709;SDS011;48770;51.624;5.886;2023-03-14T03:18:33;0.40;;;0.40;;
62709;SDS011;48770;51.624;5.886;2023-03-14T03:21:00;0.85;;;0.30;;
62709;SDS011;48770;51.624;5.886;2023-03-14T03:23:26;0.30;;;0.20;;
62709;SDS011;48770;51.624;5.886;2023-03-14T03:25:51;0.47;;;0.22;;
62709;SDS011;48770;51.624;5.886;2023-03-14T03:28:17;0.40;;;0.30;;
62709;SDS011;48770;51.624;5.886;2023-03-14T03:30:43;1.55;;;0.28;;
62709;SDS011;48770;51.624;5.886;2023-03-14T03:33:09;0.60;;;0.20;;
62709;SDS011;48770;51.624;5.886;2023-03-14T03:35:41;0.60;;;0.20;;
62709;SDS011;48770;51.624;5.886;2023-03-14T03:38:07;1.23;;;0.30;;
62709;SDS011;48770;51.624;5.886;2023-03-14T03:40:33;1.05;;;0.50;;
62709;SDS011;48770;51.624;5.886;2023-03-14T03:42:58;0.40;;;0.20;;
62709;SDS011;48770;51.624;5.886;2023-03-14T03:45:23;1.13;;;0.40;;
62709;SDS011;48770;51.624;5.886;2023-03-14T03:47:49;0.65;;;0.20;;
62709;SDS011;48770;51.624;5.886;2023-03-14T03:50:14;0.88;;;0.40;;
62709;SDS011;48770;51.624;5.886;2023-03-14T03:52:40;0.95;;;0.30;;
62709;SDS011;48770;51.624;5.886;2023-03-14T03:55:05;1.33;;;0.40;;
62709;SDS011;48770;51.624;5.886;2023-03-14T03:57:31;0.73;;;0.20;;
62709;SDS011;48770;51.624;5.886;2023-03-14T03:59:56;1.08;;;0.45;;
62709;SDS011;48770;51.624;5.886;2023-03-14T04:02:21;0.40;;;0.20;;
62709;SDS011;48770;51.624;5.886;2023-03-14T04:04:46;0.95;;;0.30;;
62709;SDS011;48770;51.624;5.886;2023-03-14T04:07:12;1.23;;;0.47;;
62709;SDS011;48770;51.624;5.886;2023-03-14T04:09:38;0.75;;;0.20;;
62709;SDS011;48770;51.624;5.886;2023-03-14T04:12:04;0.88;;;0.40;;
62709;SDS011;48770;51.624;5.886;2023-03-14T04:14:29;1.25;;;0.40;;
62709;SDS011;48770;51.624;5.886;2023-03-14T04:16:55;0.68;;;0.30;;
62709;SDS011;48770;51.624;5.886;2023-03-14T04:19:20;1.83;;;0.40;;
62709;SDS011;48770;51.624;5.886;2023-03-14T04:21:45;0.75;;;0.50;;
62709;SDS011;48770;51.624;5.886;2023-03-14T04:24:12;0.55;;;0.20;;
62709;SDS011;48770;51.624;5.886;2023-03-14T04:26:37;2.20;;;0.40;;
62709;SDS011;48770;51.624;5.886;2023-03-14T04:29:03;0.85;;;0.38;;
62709;SDS011;48770;51.624;5.886;2023-03-14T04:31:28;0.70;;;0.30;;
62709;SDS011;48770;51.624;5.886;2023-03-14T04:33:53;0.40;;;0.20;;
62709;SDS011;48770;51.624;5.886;2023-03-14T04:36:19;0.38;;;0.20;;
62709;SDS011;48770;51.624;5.886;2023-03-14T04:38:44;0.60;;;0.30;;
62709;SDS011;48770;51.624;5.886;2023-03-14T04:41:09;1.45;;;0.40;;
62709;SDS011;48770;51.624;5.886;2023-03-14T04:43:35;0.63;;;0.38;;
62709;SDS011;48770;51.624;5.886;2023-03-14T04:46:00;0.70;;;0.20;;
62709;SDS011;48770;51.624;5.886;2023-03-14T04:48:26;0.98;;;0.30;;
62709;SDS011;48770;51.624;5.886;2023-03-14T04:50:52;1.05;;;0.28;;
62709;SDS011;48770;51.624;5.886;2023-03-14T04:53:18;0.93;;;0.32;;
62709;SDS011;48770;51.624;5.886;2023-03-14T04:55:50;0.65;;;0.20;;
62709;SDS011;48770;51.624;5.886;2023-03-14T04:58:18;0.63;;;0.45;;
62709;SDS011;48770;51.624;5.886;2023-03-14T05:00:43;0.63;;;0.22;;
62709;SDS011;48770;51.624;5.886;2023-03-14T05:03:09;0.60;;;0.30;;
62709;SDS011;48770;51.624;5.886;2023-03-14T05:05:34;0.70;;;0.20;;
62709;SDS011;48770;51.624;5.886;2023-03-14T05:08:00;0.65;;;0.30;;
62709;SDS011;48770;51.624;5.886;2023-03-14T05:10:25;0.77;;;0.17;;
62709;SDS011;48770;51.624;5.886;2023-03-14T05:12:50;0.73;;;0.30;;
62709;SDS011;48770;51.624;5.886;2023-03-14T05:15:16;0.35;;;0.20;;
62709;SDS011;48770;51.624;5.886;2023-03-14T05:17:41;0.43;;;0.30;;
62709;SDS011;48770;51.624;5.886;2023-03-14T05:20:06;0.50;;;0.30;;
62709;SDS011;48770;51.624;5.886;2023-03-14T05:22:34;0.98;;;0.20;;
62709;SDS011;48770;51.624;5.886;2023-03-14T05:24:59;0.15;;;0.10;;
62709;SDS011;48770;51.624;5.886;2023-03-14T05:27:24;0.90;;;0.30;;
62709;SDS011;48770;51.624;5.886;2023-03-14T05:29:50;0.28;;;0.10;;
62709;SDS011;48770;51.624;5.886;2023-03-14T05:32:15;0.75;;;0.20;;
62709;SDS011;48770;51.624;5.886;2023-03-14T05:34:40;1.10;;;0.30;;
62709;SDS011;48770;51.624;5.886;2023-03-14T05:37:06;0.65;;;0.10;;
62709;SDS011;48770;51.624;5.886;2023-03-14T05:39:32;0.30;;;0.20;;
62709;SDS011;48770;51.624;5.886;2023-03-14T05:41:57;0.70;;;0.25;;
62709;SDS011;48770;51.624;5.886;2023-03-14T05:44:22;0.47;;;0.17;;
62709;SDS011;48770;51.624;5.886;2023-03-14T05:46:48;0.40;;;0.20;;
62709;SDS011;48770;51.624;5.886;2023-03-14T05:49:13;0.63;;;0.20;;
62709;SDS011;48770;51.624;5.886;2023-03-14T05:51:38;0.43;;;0.10;;
62709;SDS011;48770;51.624;5.886;2023-03-14T05:54:04;0.65;;;0.40;;
62709;SDS011;48770;51.624;5.886;2023-03-14T05:56:29;0.50;;;0.25;;
62709;SDS011;48770;51.624;5.886;2023-03-14T05:58:54;0.30;;;0.10;;
62709;SDS011;48770;51.624;5.886;2023-03-14T06:01:19;0.55;;;0.20;;
62709;SDS011;48770;51.624;5.886;2023-03-14T06:03:45;0.40;;;0.20;;
62709;SDS011;48770;51.624;5.886;2023-03-14T06:06:10;0.38;;;0.13;;
62709;SDS011;48770;51.624;5.886;2023-03-14T06:08:35;0.70;;;0.30;;
62709;SDS011;48770;51.624;5.886;2023-03-14T06:11:02;0.40;;;0.10;;
62709;SDS011;48770;51.624;5.886;2023-03-14T06:13:28;0.32;;;0.17;;
62709;SDS011;48770;51.624;5.886;2023-03-14T06:15:53;0.80;;;0.20;;
62709;SDS011;48770;51.624;5.886;2023-03-14T06:18:19;0.30;;;0.10;;
62709;SDS011;48770;51.624;5.886;2023-03-14T06:20:44;0.22;;;0.20;;
62709;SDS011;48770;51.624;5.886;2023-03-14T06:23:10;0.40;;;0.20;;
62709;SDS011;48770;51.624;5.886;2023-03-14T06:25:35;0.52;;;0.20;;
62709;SDS011;48770;51.624;5.886;2023-03-14T06:28:01;0.32;;;0.20;;
62709;SDS011;48770;51.624;5.886;2023-03-14T06:30:26;0.30;;;0.10;;
62709;SDS011;48770;51.624;5.886;2023-03-14T06:32:52;0.70;;;0.20;;
62709;SDS011;48770;51.624;5.886;2023-03-14T06:35:17;0.10;;;0.10;;
62709;SDS011;48770;51.624;5.886;2023-03-14T06:37:43;0.30;;;0.10;;
62709;SDS011;48770;51.624;5.886;2023-03-14T06:40:11;0.40;;;0.20;;
62709;SDS011;48770;51.624;5.886;2023-03-14T06:42:42;0.22;;;0.20;;
62709;SDS011;48770;51.624;5.886;2023-03-14T06:45:08;0.35;;;0.10;;
62709;SDS011;48770;51.624;5.886;2023-03-14T06:47:34;0.90;;;0.20;;
62709;SDS011;48770;51.624;5.886;2023-03-14T06:49:59;1.02;;;0.20;;
62709;SDS011;48770;51.624;5.886;2023-03-14T06:52:25;0.43;;;0.20;;
62709;SDS011;48770;51.624;5.886;2023-03-14T06:54:50;0.38;;;0.10;;
62709;SDS011;48770;51.624;5.886;2023-03-14T06:57:15;0.50;;;0.10;;
62709;SDS011;48770;51.624;5.886;2023-03-14T06:59:41;0.47;;;0.10;;
62709;SDS011;48770;51.624;5.886;2023-03-14T07:02:08;0.80;;;0.30;;
62709;SDS011;48770;51.624;5.886;2023-03-14T07:04:35;0.50;;;0.17;;
62709;SDS011;48770;51.624;5.886;2023-03-14T07:07:01;0.20;;;0.10;;
62709;SDS011;48770;51.624;5.886;2023-03-14T07:09:26;0.35;;;0.10;;
62709;SDS011;48770;51.624;5.886;2023-03-14T07:11:51;0.17;;;0.15;;
62709;SDS011;48770;51.624;5.886;2023-03-14T07:14:16;0.43;;;0.20;;
62709;SDS011;48770;51.624;5.886;2023-03-14T07:16:42;0.22;;;0.10;;
62709;SDS011;48770;51.624;5.886;2023-03-14T07:19:07;0.40;;;0.17;;
62709;SDS011;48770;51.624;5.886;2023-03-14T07:21:32;0.43;;;0.20;;
62709;SDS011;48770;51.624;5.886;2023-03-14T07:23:59;0.38;;;0.17;;
62709;SDS011;48770;51.624;5.886;2023-03-14T07:26:25;0.40;;;0.10;;
62709;SDS011;48770;51.624;5.886;2023-03-14T07:28:50;0.65;;;0.20;;
62709;SDS011;48770;51.624;5.886;2023-03-14T07:31:15;0.60;;;0.20;;
62709;SDS011;48770;51.624;5.886;2023-03-14T07:33:40;0.32;;;0.20;;
62709;SDS011;48770;51.624;5.886;2023-03-14T07:36:06;0.50;;;0.10;;
62709;SDS011;48770;51.624;5.886;2023-03-14T07:38:32;0.80;;;0.20;;
62709;SDS011;48770;51.624;5.886;2023-03-14T07:40:58;0.15;;;0.10;;
62709;SDS011;48770;51.624;5.886;2023-03-14T07:43:25;0.40;;;0.20;;
62709;SDS011;48770;51.624;5.886;2023-03-14T07:45:50;0.20;;;0.10;;
62709;SDS011;48770;51.624;5.886;2023-03-14T07:48:15;0.57;;;0.10;;
62709;SDS011;48770;51.624;5.886;2023-03-14T07:50:40;0.30;;;0.20;;
62709;SDS011;48770;51.624;5.886;2023-03-14T07:53:06;0.50;;;0.20;;
62709;SDS011;48770;51.624;5.886;2023-03-14T07:55:31;0.57;;;0.20;;
62709;SDS011;48770;51.624;5.886;2023-03-14T07:57:56;0.20;;;0.10;;
62709;SDS011;48770;51.624;5.886;2023-03-14T08:00:22;0.73;;;0.15;;
62709;SDS011;48770;51.624;5.886;2023-03-14T08:02:47;0.20;;;0.10;;
62709;SDS011;48770;51.624;5.886;2023-03-14T08:05:12;0.20;;;0.10;;
62709;SDS011;48770;51.624;5.886;2023-03-14T08:07:38;0.43;;;0.20;;
62709;SDS011;48770;51.624;5.886;2023-03-14T08:10:03;0.47;;;0.15;;
62709;SDS011;48770;51.624;5.886;2023-03-14T08:12:29;0.30;;;0.10;;
62709;SDS011;48770;51.624;5.886;2023-03-14T08:14:54;0.57;;;0.20;;
62709;SDS011;48770;51.624;5.886;2023-03-14T08:17:19;0.50;;;0.10;;
62709;SDS011;48770;51.624;5.886;2023-03-14T08:19:45;0.40;;;0.10;;
62709;SDS011;48770;51.624;5.886;2023-03-14T08:22:10;0.15;;;0.10;;
62709;SDS011;48770;51.624;5.886;2023-03-14T08:24:35;0.50;;;0.10;;
62709;SDS011;48770;51.624;5.886;2023-03-14T08:27:01;0.20;;;0.00;;
62709;SDS011;48770;51.624;5.886;2023-03-14T08:29:26;0.17;;;0.10;;
62709;SDS011;48770;51.624;5.886;2023-03-14T08:31:51;0.23;;;0.10;;
62709;SDS011;48770;51.624;5.886;2023-03-14T08:34:17;0.40;;;0.10;;
62709;SDS011;48770;51.624;5.886;2023-03-14T08:36:42;0.20;;;0.10;;
62709;SDS011;48770;51.624;5.886;2023-03-14T08:39:08;0.20;;;0.13;;
62709;SDS011;48770;51.624;5.886;2023-03-14T08:41:34;0.22;;;0.10;;
62709;SDS011;48770;51.624;5.886;2023-03-14T08:44:05;0.30;;;0.00;;
62709;SDS011;48770;51.624;5.886;2023-03-14T08:46:31;0.40;;;0.10;;
62709;SDS011;48770;51.624;5.886;2023-03-14T08:48:56;0.50;;;0.20;;
62709;SDS011;48770;51.624;5.886;2023-03-14T08:51:22;0.30;;;0.15;;
62709;SDS011;48770;51.624;5.886;2023-03-14T08:53:47;0.08;;;0.00;;
62709;SDS011;48770;51.624;5.886;2023-03-14T08:56:12;0.20;;;0.03;;
62709;SDS011;48770;51.624;5.886;2023-03-14T08:58:37;0.80;;;0.10;;
62709;SDS011;48770;51.624;5.886;2023-03-14T09:01:04;0.43;;;0.10;;
62709;SDS011;48770;51.624;5.886;2023-03-14T09:03:30;0.10;;;0.00;;
62709;SDS011;48770;51.624;5.886;2023-03-14T09:05:55;0.30;;;0.20;;
62709;SDS011;48770;51.624;5.886;2023-03-14T09:08:25;0.20;;;0.20;;
62709;SDS011;48770;51.624;5.886;2023-03-14T09:10:51;0.20;;;0.10;;
62709;SDS011;48770;51.624;5.886;2023-03-14T09:13:16;0.30;;;0.10;;
62709;SDS011;48770;51.624;5.886;2023-03-14T09:15:41;0.40;;;0.10;;
62709;SDS011;48770;51.624;5.886;2023-03-14T09:18:07;0.30;;;0.13;;
62709;SDS011;48770;51.624;5.886;2023-03-14T09:20:32;0.40;;;0.10;;
62709;SDS011;48770;51.624;5.886;2023-03-14T09:22:57;0.40;;;0.10;;
62709;SDS011;48770;51.624;5.886;2023-03-14T09:25:23;0.28;;;0.20;;
62709;SDS011;48770;51.624;5.886;2023-03-14T09:27:48;0.32;;;0.20;;
62709;SDS011;48770;51.624;5.886;2023-03-14T09:30:14;0.43;;;0.10;;
62709;SDS011;48770;51.624;5.886;2023-03-14T09:32:39;0.10;;;0.10;;
62709;SDS011;48770;51.624;5.886;2023-03-14T09:35:04;0.57;;;0.20;;
62709;SDS011;48770;51.624;5.886;2023-03-14T09:37:30;0.35;;;0.10;;
62709;SDS011;48770;51.624;5.886;2023-03-14T09:39:55;0.20;;;0.10;;
62709;SDS011;48770;51.624;5.886;2023-03-14T09:42:22;0.20;;;0.10;;
62709;SDS011;48770;51.624;5.886;2023-03-14T09:44:57;0.30;;;0.10;;
62709;SDS011;48770;51.624;5.886;2023-03-14T09:47:26;0.68;;;0.20;;
62709;SDS011;48770;51.624;5.886;2023-03-14T09:49:53;0.08;;;0.00;;
62709;SDS011;48770;51.624;5.886;2023-03-14T09:52:21;0.10;;;0.10;;
62709;SDS011;48770;51.624;5.886;2023-03-14T09:54:50;0.15;;;0.00;;
62709;SDS011;48770;51.624;5.886;2023-03-14T09:57:19;0.25;;;0.10;;
62709;SDS011;48770;51.624;5.886;2023-03-14T09:59:48;0.57;;;0.17;;
62709;SDS011;48770;51.624;5.886;2023-03-14T10:04:44;0.88;;;0.10;;
62709;SDS011;48770;51.624;5.886;2023-03-14T10:07:16;0.88;;;0.10;;
62709;SDS011;48770;51.624;5.886;2023-03-14T10:09:48;0.82;;;0.20;;
62709;SDS011;48770;51.624;5.886;2023-03-14T10:12:15;0.45;;;0.10;;
62709;SDS011;48770;51.624;5.886;2023-03-14T10:14:44;0.43;;;0.10;;
62709;SDS011;48770;51.624;5.886;2023-03-14T10:17:17;0.13;;;0.00;;
62709;SDS011;48770;51.624;5.886;2023-03-14T10:19:51;0.30;;;0.10;;
62709;SDS011;48770;51.624;5.886;2023-03-14T10:22:18;0.00;;;0.00;;
62709;SDS011;48770;51.624;5.886;2023-03-14T10:24:46;0.32;;;0.10;;
62709;SDS011;48770;51.624;5.886;2023-03-14T10:27:21;0.50;;;0.10;;
62709;SDS011;48770;51.624;5.886;2023-03-14T10:29:56;0.38;;;0.13;;
62709;SDS011;48770;51.624;5.886;2023-03-14T10:32:32;0.70;;;0.15;;
62709;SDS011;48770;51.624;5.886;2023-03-14T10:35:07;0.20;;;0.20;;
62709;SDS011;48770;51.624;5.886;2023-03-14T10:40:38;0.38;;;0.10;;
62709;SDS011;48770;51.624;5.886;2023-03-14T10:43:06;0.50;;;0.10;;
62709;SDS011;48770;51.624;5.886;2023-03-14T10:45:38;0.05;;;0.00;;
62709;SDS011;48770;51.624;5.886;2023-03-14T10:50:40;0.20;;;0.03;;
62709;SDS011;48770;51.624;5.886;2023-03-14T10:53:16;0.30;;;0.10;;
62709;SDS011;48770;51.624;5.886;2023-03-14T10:55:43;0.77;;;0.10;;
62709;SDS011;48770;51.624;5.886;2023-03-14T10:58:19;0.65;;;0.10;;
62709;SDS011;48770;51.624;5.886;2023-03-14T11:00:48;0.40;;;0.20;;
62709;SDS011;48770;51.624;5.886;2023-03-14T11:03:18;0.20;;;0.10;;
62709;SDS011;48770;51.624;5.886;2023-03-14T11:08:37;0.93;;;0.20;;
62709;SDS011;48770;51.624;5.886;2023-03-14T11:11:14;0.32;;;0.10;;
62709;SDS011;48770;51.624;5.886;2023-03-14T11:14:07;0.28;;;0.10;;
62709;SDS011;48770;51.624;5.886;2023-03-14T11:19:22;0.40;;;0.10;;
62709;SDS011;48770;51.624;5.886;2023-03-14T11:22:04;0.60;;;0.20;;
62709;SDS011;48770;51.624;5.886;2023-03-14T11:35:37;1.00;;;0.30;;
62709;SDS011;48770;51.624;5.886;2023-03-14T11:40:54;0.82;;;0.20;;
62709;SDS011;48770;51.624;5.886;2023-03-14T11:43:38;0.40;;;0.10;;
62709;SDS011;48770;51.624;5.886;2023-03-14T11:46:11;1.00;;;0.30;;
62709;SDS011;48770;51.624;5.886;2023-03-14T11:51:38;1.67;;;0.43;;
62709;SDS011;48770;51.624;5.886;2023-03-14T11:57:14;1.40;;;0.30;;
62709;SDS011;48770;51.624;5.886;2023-03-14T12:02:21;1.13;;;0.20;;
62709;SDS011;48770;51.624;5.886;2023-03-14T12:10:48;1.60;;;0.38;;
62709;SDS011;48770;51.624;5.886;2023-03-14T12:13:16;1.38;;;0.30;;
62709;SDS011;48770;51.624;5.886;2023-03-14T12:15:50;1.63;;;0.20;;
62709;SDS011;48770;51.624;5.886;2023-03-14T12:18:21;0.88;;;0.30;;
62709;SDS011;48770;51.624;5.886;2023-03-14T12:20:53;2.22;;;0.20;;
62709;SDS011;48770;51.624;5.886;2023-03-14T12:23:21;0.40;;;0.20;;
62709;SDS011;48770;51.624;5.886;2023-03-14T12:25:49;0.80;;;0.30;;
62709;SDS011;48770;51.624;5.886;2023-03-14T12:28:39;8.48;;;3.53;;
62709;SDS011;48770;51.624;5.886;2023-03-14T12:31:35;13.00;;;5.50;;
62709;SDS011;48770;51.624;5.886;2023-03-14T12:34:26;12.73;;;4.97;;
62709;SDS011;48770;51.624;5.886;2023-03-14T12:36:56;11.23;;;4.88;;
62709;SDS011;48770;51.624;5.886;2023-03-14T12:39:40;12.02;;;4.78;;
62709;SDS011;48770;51.624;5.886;2023-03-14T12:50:36;14.80;;;4.13;;
62709;SDS011;48770;51.624;5.886;2023-03-14T12:58:59;11.10;;;4.38;;
62709;SDS011;48770;51.624;5.886;2023-03-14T13:01:36;8.45;;;3.88;;
62709;SDS011;48770;51.624;5.886;2023-03-14T13:04:08;9.23;;;3.88;;
62709;SDS011;48770;51.624;5.886;2023-03-14T13:07:10;8.98;;;3.80;;
62709;SDS011;48770;51.624;5.886;2023-03-14T13:09:34;8.98;;;3.72;;
62709;SDS011;48770;51.624;5.886;2023-03-14T13:12:08;11.65;;;3.83;;
62709;SDS011;48770;51.624;5.886;2023-03-14T13:14:35;8.45;;;3.90;;
62709;SDS011;48770;51.624;5.886;2023-03-14T13:17:09;8.15;;;3.50;;
62709;SDS011;48770;51.624;5.886;2023-03-14T13:19:37;6.97;;;3.17;;
62709;SDS011;48770;51.624;5.886;2023-03-14T13:22:04;7.90;;;2.97;;
62709;SDS011;48770;51.624;5.886;2023-03-14T13:24:33;9.70;;;3.60;;
62709;SDS011;48770;51.624;5.886;2023-03-14T13:26:59;8.32;;;3.70;;
62709;SDS011;48770;51.624;5.886;2023-03-14T13:29:26;7.78;;;3.22;;
62709;SDS011;48770;51.624;5.886;2023-03-14T13:31:54;8.27;;;3.50;;
62709;SDS011;48770;51.624;5.886;2023-03-14T13:34:25;8.23;;;3.20;;
62709;SDS011;48770;51.624;5.886;2023-03-14T13:36:54;7.45;;;2.78;;
62709;SDS011;48770;51.624;5.886;2023-03-14T13:39:21;5.80;;;2.72;;
62709;SDS011;48770;51.624;5.886;2023-03-14T13:41:50;6.35;;;2.83;;
62709;SDS011;48770;51.624;5.886;2023-03-14T13:44:17;5.82;;;2.38;;
62709;SDS011;48770;51.624;5.886;2023-03-14T13:46:49;5.70;;;2.50;;
62709;SDS011;48770;51.624;5.886;2023-03-14T13:49:22;4.65;;;2.28;;
62709;SDS011;48770;51.624;5.886;2023-03-14T13:51:50;7.13;;;2.80;;
62709;SDS011;48770;51.624;5.886;2023-03-14T13:54:16;6.82;;;2.85;;
62709;SDS011;48770;51.624;5.886;2023-03-14T13:56:43;5.60;;;2.20;;
62709;SDS011;48770;51.624;5.886;2023-03-14T13:59:31;5.22;;;2.25;;
62709;SDS011;48770;51.624;5.886;2023-03-14T14:02:00;5.03;;;2.33;;
62709;SDS011;48770;51.624;5.886;2023-03-14T14:04:35;4.50;;;2.28;;
62709;SDS011;48770;51.624;5.886;2023-03-14T14:07:06;5.80;;;2.60;;
62709;SDS011;48770;51.624;5.886;2023-03-14T14:09:42;5.05;;;2.10;;
62709;SDS011;48770;51.624;5.886;2023-03-14T14:12:17;7.20;;;2.55;;
62709;SDS011;48770;51.624;5.886;2023-03-14T14:14:54;6.00;;;2.40;;
62709;SDS011;48770;51.624;5.886;2023-03-14T14:17:28;2.97;;;2.17;;
62709;SDS011;48770;51.624;5.886;2023-03-14T14:20:26;5.28;;;2.28;;
62709;SDS011;48770;51.624;5.886;2023-03-14T14:22:57;6.80;;;2.60;;
62709;SDS011;48770;51.624;5.886;2023-03-14T14:25:24;3.78;;;1.92;;
62709;SDS011;48770;51.624;5.886;2023-03-14T14:27:49;4.10;;;2.00;;
62709;SDS011;48770;51.624;5.886;2023-03-14T14:32:44;5.63;;;2.20;;
62709;SDS011;48770;51.624;5.886;2023-03-14T14:35:24;4.93;;;2.22;;
62709;SDS011;48770;51.624;5.886;2023-03-14T14:37:51;4.57;;;2.00;;
62709;SDS011;48770;51.624;5.886;2023-03-14T14:40:19;4.30;;;1.88;;
62709;SDS011;48770;51.624;5.886;2023-03-14T14:42:47;2.83;;;1.65;;
62709;SDS011;48770;51.624;5.886;2023-03-14T14:45:19;3.22;;;1.80;;
62709;SDS011;48770;51.624;5.886;2023-03-14T14:47:50;4.20;;;2.03;;
62709;SDS011;48770;51.624;5.886;2023-03-14T14:50:34;3.97;;;1.92;;
62709;SDS011;48770;51.624;5.886;2023-03-14T14:53:48;2.83;;;1.65;;
62709;SDS011;48770;51.624;5.886;2023-03-14T14:55:52;2.92;;;1.60;;
62709;SDS011;48770;51.624;5.886;2023-03-14T14:58:32;2.95;;;1.58;;
62709;SDS011;48770;51.624;5.886;2023-03-14T15:01:07;3.22;;;1.73;;
62709;SDS011;48770;51.624;5.886;2023-03-14T15:03:41;2.80;;;1.60;;
62709;SDS011;48770;51.624;5.886;2023-03-14T15:06:08;2.10;;;1.52;;
62709;SDS011;48770;51.624;5.886;2023-03-14T15:08:36;2.80;;;1.50;;
62709;SDS011;48770;51.624;5.886;2023-03-14T15:11:02;2.38;;;1.50;;
62709;SDS011;48770;51.624;5.886;2023-03-14T15:13:27;3.67;;;1.88;;
62709;SDS011;48770;51.624;5.886;2023-03-14T15:15:52;3.22;;;1.73;;
62709;SDS011;48770;51.624;5.886;2023-03-14T15:18:21;3.75;;;1.70;;
62709;SDS011;48770;51.624;5.886;2023-03-14T15:20:51;2.33;;;1.35;;
62709;SDS011;48770;51.624;5.886;2023-03-14T15:23:17;2.17;;;1.27;;
62709;SDS011;48770;51.624;5.886;2023-03-14T15:25:44;2.97;;;1.45;;
62709;SDS011;48770;51.624;5.886;2023-03-14T15:28:20;4.70;;;1.42;;
62709;SDS011;48770;51.624;5.886;2023-03-14T15:30:50;3.30;;;1.55;;
62709;SDS011;48770;51.624;5.886;2023-03-14T15:33:17;2.47;;;1.60;;
62709;SDS011;48770;51.624;5.886;2023-03-14T15:35:43;2.85;;;1.50;;
62709;SDS011;48770;51.624;5.886;2023-03-14T15:38:13;2.47;;;1.48;;
62709;SDS011;48770;51.624;5.886;2023-03-14T15:40:46;3.83;;;1.55;;
62709;SDS011;48770;51.624;5.886;2023-03-14T15:43:11;3.50;;;1.80;;
62709;SDS011;48770;51.624;5.886;2023-03-14T15:45:37;3.53;;;1.52;;
62709;SDS011;48770;51.624;5.886;2023-03-14T15:48:02;3.38;;;1.48;;
62709;SDS011;48770;51.624;5.886;2023-03-14T15:50:28;2.40;;;1.50;;
62709;SDS011;48770;51.624;5.886;2023-03-14T15:52:53;3.60;;;1.48;;
62709;SDS011;48770;51.624;5.886;2023-03-14T15:55:20;3.00;;;1.73;;
62709;SDS011;48770;51.624;5.886;2023-03-14T15:57:45;3.22;;;1.40;;
62709;SDS011;48770;51.624;5.886;2023-03-14T16:00:11;3.28;;;1.20;;
62709;SDS011;48770;51.624;5.886;2023-03-14T16:02:39;2.03;;;1.00;;
62709;SDS011;48770;51.624;5.886;2023-03-14T16:05:06;3.45;;;1.38;;
62709;SDS011;48770;51.624;5.886;2023-03-14T16:07:33;2.45;;;1.15;;